VTSP/HKT METAR and TAF weather

Enter ICAO airport designator
Station Type Date Time Source
VTSP METAR 2020/01/27 11:00 UTC NOAA

VTSP 271100Z 29010KT 260V330 9999 FEW020 28/22 Q1009 NOSIG


Station Type Date Time Source
VTSP Decoded METAR 2020/01/27 11:00 UTC NOAA

Phuket Airport, Thailand (VTSP) 08-07N 098-19E 10M
Jan 27, 2020 - 06:00 AM EST / 2020.01.27 1100 UTC
Wind: from the WNW (290 degrees) at 12 MPH (10 KT) (direction variable):0
Visibility: greater than 7 mile(s):0
Sky conditions: mostly clear
Temperature: 82 F (28 C)
Dew Point: 71 F (22 C)
Relative Humidity: 69%
Pressure (altimeter): 29.80 in. Hg (1009 hPa)
ob: VTSP 271100Z 29010KT 260V330 9999 FEW020 28/22 Q1009 NOSIG
cycle: 11

Station Type Date Time Source
VTSP TAF 2020/01/27 06:37 UTC NOAA

TAF VTSP 270500Z 2706/2812 30008KT 9999 FEW020
BECMG 2712/2714 00000KT
BECMG 2800/2802 08008KT
BECMG 2806/2808 30008KT

Example: see airport list